NZAA/AKL METAR and TAF weather

Enter ICAO airport designator
Station Type Date Time Source
NZAA METAR 2019/12/06 02:00 UTC NOAA

NZAA 060200Z AUTO 36011KT 330V050 9999 SCT043/// 25/16 Q1014 NOSIG


Station Type Date Time Source
NZAA Decoded METAR 2019/12/06 02:00 UTC NOAA

Auckland Airport, New Zealand (NZAA) 37-01S 174-48E 6M
Dec 05, 2019 - 09:00 PM EST / 2019.12.06 0200 UTC
Wind: from the N (360 degrees) at 13 MPH (11 KT) (direction variable):0
Visibility: greater than 7 mile(s):0
Sky conditions: partly cloudy
Temperature: 77 F (25 C)
Dew Point: 60 F (16 C)
Relative Humidity: 57%
Pressure (altimeter): 29.94 in. Hg (1014 hPa)
ob: NZAA 060200Z AUTO 36011KT 330V050 9999 SCT043/// 25/16 Q1014 NOSIG
cycle: 2

Station Type Date Time Source
NZAA TAF 2019/12/05 18:14 UTC NOAA

TAF NZAA 051709Z 0518/0618 32005KT 9999 SCT030
BECMG 0523/0601 02010KT
BECMG 0606/0608 VRB02KT

Example: see airport list